createdAt,value
2019-05-13T00:02:26.288Z,104012.80
2019-05-13T00:04:55.735Z,104014.75
2019-05-13T00:07:25.131Z,104015.67
2019-05-13T00:09:54.559Z,104009.39
2019-05-13T00:12:25.595Z,104015.21
2019-05-13T00:14:55.030Z,104011.97
2019-05-13T00:17:24.498Z,104013.55
2019-05-13T00:19:53.978Z,104013.77
2019-05-13T00:22:23.583Z,104019.17
2019-05-13T00:24:54.247Z,104015.00
2019-05-13T00:27:23.745Z,104021.83
2019-05-13T00:29:53.527Z,104019.56
2019-05-13T00:32:23.684Z,104024.99
2019-05-13T00:34:54.929Z,104025.28
2019-05-13T00:37:24.592Z,104026.85
2019-05-13T00:39:54.376Z,104029.95
2019-05-13T00:42:24.487Z,104028.52
2019-05-13T00:44:54.168Z,104031.52
2019-05-13T00:47:23.737Z,104033.94
2019-05-13T00:49:54.133Z,104026.42
2019-05-13T00:52:23.661Z,104029.30
2019-05-13T00:54:53.585Z,104033.91
2019-05-13T00:57:23.786Z,104028.57
2019-05-13T00:59:54.124Z,104035.89
2019-05-13T01:02:24.300Z,104034.11
2019-05-13T01:04:53.877Z,104026.56
2019-05-13T01:07:28.526Z,104022.66
2019-05-13T01:09:54.490Z,104024.14
2019-05-13T01:12:23.934Z,104020.65
2019-05-13T01:14:53.548Z,104015.87
2019-05-13T01:17:25.940Z,104022.71
2019-05-13T01:19:55.452Z,104022.86
2019-05-13T01:22:25.425Z,104030.84
2019-05-13T01:24:54.866Z,104027.08
2019-05-13T01:27:24.509Z,104025.00
2019-05-13T01:29:53.949Z,104026.09
2019-05-13T01:32:23.946Z,104031.23
2019-05-13T01:34:53.981Z,104033.25
2019-05-13T01:37:32.210Z,104031.20
2019-05-13T01:39:54.579Z,104030.06
2019-05-13T01:42:24.166Z,104034.11
2019-05-13T01:44:54.043Z,104030.81
2019-05-13T01:47:24.202Z,104035.11
2019-05-13T01:49:54.244Z,104035.93
2019-05-13T01:52:25.382Z,104038.11
2019-05-13T01:54:54.802Z,104033.49
2019-05-13T01:57:24.331Z,104029.49
2019-05-13T01:59:54.061Z,104029.49
2019-05-13T02:02:24.227Z,104032.27
2019-05-13T02:04:53.781Z,104036.88
2019-05-13T02:07:24.400Z,104037.38
2019-05-13T02:09:57.039Z,104034.12
2019-05-13T02:12:26.486Z,104039.25
2019-05-13T02:14:55.995Z,104030.37
2019-05-13T02:17:25.434Z,104038.70
2019-05-13T02:19:54.948Z,104044.08
2019-05-13T02:22:24.853Z,104040.42
2019-05-13T02:24:54.359Z,104044.84
2019-05-13T02:27:25.499Z,104044.25
2019-05-13T02:29:55.113Z,104042.66
2019-05-13T02:32:24.751Z,104051.16
2019-05-13T02:34:54.191Z,104050.82
2019-05-13T02:37:23.727Z,104053.25
2019-05-13T02:39:53.728Z,104051.39
2019-05-13T02:42:23.183Z,104049.56
2019-05-13T02:44:53.136Z,104053.98
2019-05-13T02:47:22.858Z,104052.00
2019-05-13T02:49:53.493Z,104056.63
2019-05-13T02:52:23.055Z,104057.14
2019-05-13T02:54:52.974Z,104057.33
2019-05-13T02:57:23.266Z,104062.12
2019-05-13T02:59:53.005Z,104057.91
2019-05-13T03:02:22.708Z,104058.30
2019-05-13T03:04:52.596Z,104061.62
2019-05-13T03:07:23.275Z,104071.38
2019-05-13T03:09:53.068Z,104064.81
2019-05-13T03:12:23.203Z,104067.17
2019-05-13T03:14:53.495Z,104078.70
2019-05-13T03:17:25.524Z,104072.09
2019-05-13T03:19:54.995Z,104071.52
2019-05-13T03:22:24.450Z,104076.81
2019-05-13T03:24:54.163Z,104069.83
2019-05-13T03:27:25.154Z,104071.77
2019-05-13T03:29:54.962Z,104072.51
2019-05-13T03:32:26.735Z,104076.17
2019-05-13T03:34:57.045Z,104081.23
2019-05-13T03:37:27.467Z,104078.59
2019-05-13T03:39:58.202Z,104077.52
2019-05-13T03:42:33.224Z,104076.30
2019-05-13T03:45:03.459Z,104079.86
2019-05-13T03:47:34.836Z,104080.69
2019-05-13T03:50:05.741Z,104082.84
2019-05-13T03:52:35.159Z,104073.84
2019-05-13T03:55:07.073Z,104074.31
2019-05-13T03:57:36.929Z,104074.60
2019-05-13T04:00:08.206Z,104068.93
2019-05-13T04:02:37.766Z,104070.25
2019-05-13T04:05:07.402Z,104070.19
2019-05-13T04:07:36.839Z,104082.09
2019-05-13T04:10:07.825Z,104085.16
2019-05-13T04:12:38.559Z,104082.58
2019-05-13T04:15:12.400Z,104077.80
2019-05-13T04:17:42.830Z,104090.09
2019-05-13T04:20:12.780Z,104083.43
2019-05-13T04:22:42.949Z,104087.87
2019-05-13T04:25:12.926Z,104085.58
2019-05-13T04:27:43.025Z,104084.85
2019-05-13T04:30:13.602Z,104092.50
2019-05-13T04:32:44.247Z,104090.48
2019-05-13T04:35:14.225Z,104090.28
2019-05-13T04:37:44.499Z,104099.58
2019-05-13T04:40:15.903Z,104097.92
2019-05-13T04:42:45.908Z,104094.90
2019-05-13T04:45:15.489Z,104102.09
2019-05-13T04:47:45.827Z,104097.20
2019-05-13T04:50:15.508Z,104085.43
2019-05-13T04:52:45.285Z,104093.33
2019-05-13T04:55:14.946Z,104092.55
2019-05-13T04:57:44.445Z,104094.81
2019-05-13T05:00:14.614Z,104097.42
2019-05-13T05:03:06.766Z,104098.92
2019-05-13T05:05:52.891Z,104104.09
2019-05-13T05:08:47.606Z,104098.84
2019-05-13T05:11:53.789Z,104095.16
2019-05-13T05:14:32.587Z,104093.70
2019-05-13T05:17:17.019Z,104095.59
2019-05-13T05:20:03.666Z,104100.08
2019-05-13T05:23:01.942Z,104097.69
2019-05-13T05:25:46.617Z,104100.24
2019-05-13T05:28:21.639Z,104105.26
2019-05-13T05:31:11.400Z,104110.61
2019-05-13T05:34:06.208Z,104107.74
2019-05-13T05:36:46.504Z,104106.41
2019-05-13T05:39:24.776Z,104109.50
2019-05-13T05:41:56.792Z,104108.48
2019-05-13T05:44:32.079Z,104110.92
2019-05-13T05:47:02.941Z,104121.11
2019-05-13T05:49:32.789Z,104121.05
2019-05-13T05:52:05.588Z,104121.77
2019-05-13T05:54:38.152Z,104122.48
2019-05-13T05:57:12.150Z,104109.37
2019-05-13T05:59:42.570Z,104109.22
2019-05-13T06:02:12.613Z,104113.86
2019-05-13T06:04:43.338Z,104118.28
2019-05-13T06:07:14.103Z,104108.84
2019-05-13T06:09:43.792Z,104114.29
2019-05-13T06:12:13.464Z,104109.27
2019-05-13T06:14:43.545Z,104106.80
2019-05-13T06:17:13.381Z,104108.85
2019-05-13T06:19:43.627Z,104112.36
2019-05-13T06:22:13.463Z,104112.64
2019-05-13T06:24:43.145Z,104113.67
2019-05-13T06:27:12.648Z,104115.27
2019-05-13T06:29:42.593Z,104127.70
2019-05-13T06:32:21.432Z,104125.97
2019-05-13T06:34:43.601Z,104127.09
2019-05-13T06:37:13.068Z,104130.52
2019-05-13T06:39:47.528Z,104126.23
2019-05-13T06:42:17.146Z,104128.19
2019-05-13T06:44:46.591Z,104133.68
2019-05-13T06:47:16.185Z,104131.39
2019-05-13T06:49:51.873Z,104129.30
2019-05-13T06:52:24.348Z,104127.27
2019-05-13T06:54:53.825Z,104131.24
2019-05-13T06:57:23.491Z,104133.85
2019-05-13T06:59:53.015Z,104136.34
2019-05-13T07:02:22.443Z,104140.14
2019-05-13T07:04:52.020Z,104140.59
2019-05-13T07:07:22.018Z,104136.44
2019-05-13T07:09:51.929Z,104138.55
2019-05-13T07:12:22.059Z,104142.28
2019-05-13T07:14:51.959Z,104150.55
2019-05-13T07:17:22.353Z,104150.23
2019-05-13T07:19:53.183Z,104148.95
2019-05-13T07:22:23.197Z,104162.13
2019-05-13T07:24:52.772Z,104162.13
2019-05-13T07:27:23.279Z,104154.58
2019-05-13T07:29:55.559Z,104159.16
2019-05-13T07:32:26.141Z,104157.80
2019-05-13T07:34:57.158Z,104153.57
2019-05-13T07:37:26.822Z,104153.57
2019-05-13T07:39:56.771Z,104166.39
2019-05-13T07:42:26.626Z,104160.46
2019-05-13T07:44:56.192Z,104161.63
2019-05-13T07:47:25.809Z,104161.00
2019-05-13T07:49:55.205Z,104161.00
2019-05-13T07:52:24.879Z,104165.48
2019-05-13T07:54:54.393Z,104168.56
2019-05-13T07:57:23.793Z,104168.50
2019-05-13T07:59:53.294Z,104167.84
2019-05-13T08:02:22.757Z,104168.02
2019-05-13T08:04:53.162Z,104166.72
2019-05-13T08:07:22.859Z,104173.95
2019-05-13T08:09:55.712Z,104174.65
2019-05-13T08:12:23.379Z,104169.09
2019-05-13T08:14:53.042Z,104173.09
2019-05-13T08:17:22.788Z,104166.95
2019-05-13T08:19:52.283Z,104178.05
2019-05-13T08:22:22.293Z,104176.92
2019-05-13T08:24:54.129Z,104179.61
2019-05-13T08:27:30.227Z,104176.80
2019-05-13T08:29:55.848Z,104188.58
2019-05-13T08:32:25.347Z,104182.73
2019-05-13T08:35:01.688Z,104176.00
2019-05-13T08:37:26.056Z,104183.41
2019-05-13T08:39:55.459Z,104189.09
2019-05-13T08:42:25.076Z,104191.17
2019-05-13T08:44:54.693Z,104184.64
2019-05-13T08:47:24.184Z,104187.20
2019-05-13T08:49:53.579Z,104185.09
2019-05-13T08:52:23.030Z,104190.52
2019-05-13T08:54:52.688Z,104187.36
2019-05-13T08:57:22.342Z,104184.80
2019-05-13T08:59:53.380Z,104185.87
2019-05-13T09:02:22.941Z,104190.80
2019-05-13T09:04:52.378Z,104184.84
2019-05-13T09:07:24.377Z,104185.13
2019-05-13T09:09:53.559Z,104189.10
2019-05-13T09:12:32.165Z,104188.38
2019-05-13T09:14:54.210Z,104199.68
2019-05-13T09:17:23.681Z,104193.86
2019-05-13T09:19:53.195Z,104191.44
2019-05-13T09:22:22.597Z,104200.61
2019-05-13T09:24:52.991Z,104203.00
2019-05-13T09:27:22.754Z,104193.59
2019-05-13T09:29:52.201Z,104199.23
2019-05-13T09:32:21.770Z,104195.97
2019-05-13T09:34:52.503Z,104203.02
2019-05-13T09:37:22.688Z,104201.80
2019-05-13T09:39:52.305Z,104197.77
2019-05-13T09:42:21.894Z,104190.98
2019-05-13T09:44:52.501Z,104196.09
2019-05-13T09:47:22.158Z,104187.94
2019-05-13T09:49:54.380Z,104193.19
2019-05-13T09:52:22.899Z,104194.03
2019-05-13T09:54:52.575Z,104195.59
2019-05-13T09:57:23.561Z,104193.30
2019-05-13T09:59:54.604Z,104184.23
2019-05-13T10:02:24.003Z,104184.02
2019-05-13T10:04:54.241Z,104184.80
2019-05-13T10:07:24.755Z,104189.31
2019-05-13T10:09:55.845Z,104184.73
2019-05-13T10:12:25.634Z,104182.78
2019-05-13T10:14:55.094Z,104189.41
2019-05-13T10:17:24.630Z,104183.76
2019-05-13T10:19:54.170Z,104190.06
2019-05-13T10:22:23.675Z,104176.26
2019-05-13T10:24:53.077Z,104185.64
2019-05-13T10:27:23.855Z,104191.59
2019-05-13T10:29:53.515Z,104179.63
2019-05-13T10:32:23.086Z,104186.95
2019-05-13T10:34:54.648Z,104192.09
2019-05-13T10:37:24.178Z,104192.50
2019-05-13T10:39:53.648Z,104188.59
2019-05-13T10:42:23.083Z,104195.06
2019-05-13T10:44:53.906Z,104205.91
2019-05-13T10:47:23.528Z,104190.55
2019-05-13T10:49:52.934Z,104197.41
2019-05-13T10:52:22.894Z,104196.44
2019-05-13T10:54:52.939Z,104196.41
2019-05-13T10:57:22.496Z,104190.91
2019-05-13T10:59:53.934Z,104200.84
2019-05-13T11:02:23.374Z,104184.48
2019-05-13T11:04:52.869Z,104191.45
2019-05-13T11:07:22.667Z,104179.89
2019-05-13T11:09:52.852Z,104194.00
2019-05-13T11:12:28.084Z,104185.13
2019-05-13T11:14:55.352Z,104181.20
2019-05-13T11:17:31.136Z,104178.66
2019-05-13T11:19:56.603Z,104178.78
2019-05-13T11:22:26.034Z,104185.13
2019-05-13T11:24:55.630Z,104181.02
2019-05-13T11:27:25.354Z,104184.95
2019-05-13T11:29:54.810Z,104179.08
2019-05-13T11:32:24.276Z,104180.08
2019-05-13T11:34:53.751Z,104178.63
2019-05-13T11:37:23.468Z,104179.06
2019-05-13T11:39:53.034Z,104167.80
2019-05-13T11:42:22.979Z,104171.66
2019-05-13T11:44:53.147Z,104177.66
2019-05-13T11:47:22.673Z,104170.97
2019-05-13T11:49:52.480Z,104165.45
2019-05-13T11:52:22.711Z,104163.44
2019-05-13T11:54:53.749Z,104164.29
2019-05-13T11:57:23.509Z,104163.03
2019-05-13T11:59:53.558Z,104163.98
2019-05-13T12:02:24.794Z,104155.41
2019-05-13T12:04:54.368Z,104155.92
2019-05-13T12:07:25.275Z,104157.84
2019-05-13T12:09:54.785Z,104153.48
2019-05-13T12:12:30.466Z,104154.86
2019-05-13T12:15:22.398Z,104148.45
2019-05-13T12:17:26.628Z,104144.98
2019-05-13T12:19:56.096Z,104146.16
2019-05-13T12:22:25.491Z,104141.31
2019-05-13T12:24:54.921Z,104148.87
2019-05-13T12:27:24.576Z,104146.30
2019-05-13T12:29:54.002Z,104152.53
2019-05-13T12:32:23.408Z,104149.91
2019-05-13T12:34:53.209Z,104148.45
2019-05-13T12:37:22.799Z,104149.31
2019-05-13T12:39:53.394Z,104141.48
2019-05-13T12:42:23.006Z,104131.07
2019-05-13T12:45:08.997Z,104138.81
2019-05-13T12:47:23.705Z,104134.30
2019-05-13T12:49:53.118Z,104135.82
2019-05-13T12:52:23.123Z,104129.87
2019-05-13T12:54:53.181Z,104136.75
2019-05-13T12:57:24.529Z,104134.61
2019-05-13T12:59:53.960Z,104142.16
2019-05-13T13:02:23.500Z,104137.49
2019-05-13T13:05:10.587Z,104137.41
2019-05-13T13:07:25.584Z,104142.98
2019-05-13T13:09:55.103Z,104138.37
2019-05-13T13:12:34.393Z,104137.99
2019-05-13T13:14:57.519Z,104134.95
2019-05-13T13:17:26.921Z,104123.91
2019-05-13T13:20:04.711Z,104132.07
2019-05-13T13:22:27.546Z,104120.23
2019-05-13T13:24:57.741Z,104124.48
2019-05-13T13:27:58.867Z,104127.20
2019-05-13T13:30:04.409Z,104105.69
2019-05-13T13:32:33.119Z,104111.91
2019-05-13T13:35:03.749Z,104109.92
2019-05-13T13:37:34.993Z,104096.03
2019-05-13T13:40:06.175Z,104107.67
2019-05-13T13:42:35.907Z,104105.46
2019-05-13T13:45:06.472Z,104104.30
2019-05-13T13:47:35.903Z,104106.94
2019-05-13T13:50:07.259Z,104111.23
2019-05-13T13:52:36.795Z,104102.38
2019-05-13T13:55:08.811Z,104101.21
2019-05-13T13:57:38.017Z,104106.63
2019-05-13T14:00:26.394Z,104103.01
2019-05-13T14:02:42.372Z,104108.95
2019-05-13T14:05:12.806Z,104104.67
2019-05-13T14:07:42.696Z,104105.89
2019-05-13T14:10:12.804Z,104105.34
2019-05-13T14:12:42.322Z,104100.59
2019-05-13T14:15:12.519Z,104103.05
2019-05-13T14:17:43.933Z,104101.66
2019-05-13T14:20:14.218Z,104097.84
2019-05-13T14:22:43.643Z,104097.79
2019-05-13T14:25:13.540Z,104089.52
2019-05-13T14:27:42.952Z,104086.05
2019-05-13T14:30:14.020Z,104083.30
2019-05-13T14:32:43.461Z,104081.94
2019-05-13T14:35:13.144Z,104083.23
2019-05-13T14:37:42.645Z,104081.27
2019-05-13T14:40:13.328Z,104075.91
2019-05-13T14:42:42.878Z,104070.59
2019-05-13T14:45:14.253Z,104075.84
2019-05-13T14:47:43.957Z,104069.05
2019-05-13T14:50:15.074Z,104067.14
2019-05-13T14:52:44.687Z,104067.14
2019-05-13T14:55:14.613Z,104073.94
2019-05-13T14:57:44.222Z,104076.48
2019-05-13T15:00:14.226Z,104065.34
2019-05-13T15:02:43.875Z,104060.44
2019-05-13T15:05:14.691Z,104060.44
2019-05-13T15:07:44.198Z,104062.22
2019-05-13T15:10:13.969Z,104053.69
2019-05-13T15:12:43.786Z,104053.69
2019-05-13T15:15:15.254Z,104058.45
2019-05-13T15:17:44.765Z,104061.06
2019-05-13T15:20:14.797Z,104058.49
2019-05-13T15:22:45.847Z,104054.72
2019-05-13T15:25:15.389Z,104054.42
2019-05-13T15:27:45.166Z,104043.39
2019-05-13T15:30:18.009Z,104045.20
2019-05-13T15:32:46.024Z,104047.02
2019-05-13T15:35:15.453Z,104046.51
2019-05-13T15:37:44.966Z,104045.80
2019-05-13T15:40:14.635Z,104041.56
2019-05-13T15:42:44.371Z,104047.55
2019-05-13T15:45:15.482Z,104047.41
2019-05-13T15:47:44.966Z,104040.84
2019-05-13T15:50:14.586Z,104036.27
2019-05-13T15:52:43.967Z,104042.07
2019-05-13T15:55:13.478Z,104033.37
2019-05-13T15:57:43.158Z,104032.81
2019-05-13T16:00:12.951Z,104028.05
2019-05-13T16:02:42.424Z,104031.27
2019-05-13T16:05:12.352Z,104033.27
2019-05-13T16:07:42.138Z,104035.73
2019-05-13T16:10:11.720Z,104035.61
2019-05-13T16:12:41.154Z,104034.05
2019-05-13T16:15:15.506Z,104023.79
2019-05-13T16:17:44.819Z,104018.89
2019-05-13T16:20:13.759Z,104019.90
2019-05-13T16:22:43.287Z,104013.96
2019-05-13T16:25:14.724Z,104007.61
2019-05-13T16:27:44.194Z,104004.66
2019-05-13T16:30:13.990Z,104009.47
2019-05-13T16:32:43.401Z,104014.30
2019-05-13T16:35:13.755Z,104013.20
2019-05-13T16:37:43.210Z,104011.00
2019-05-13T16:40:13.089Z,104008.39
2019-05-13T16:42:42.490Z,104007.09
2019-05-13T16:45:12.807Z,104004.91
2019-05-13T16:47:56.640Z,104013.92
2019-05-13T16:50:15.473Z,104018.67
2019-05-13T16:52:44.870Z,104015.12
2019-05-13T16:55:15.558Z,104013.86
2019-05-13T16:57:45.020Z,104010.56
2019-05-13T17:00:15.160Z,104007.69
2019-05-13T17:02:44.679Z,104002.58
2019-05-13T17:05:14.742Z,104000.17
2019-05-13T17:07:44.361Z,103996.66
2019-05-13T17:10:14.278Z,103990.62
2019-05-13T17:12:43.670Z,104003.19
2019-05-13T17:15:13.822Z,104004.47
2019-05-13T17:17:43.386Z,104018.12
2019-05-13T17:20:13.439Z,104018.92
2019-05-13T17:22:42.882Z,104019.87
2019-05-13T17:25:12.920Z,104013.38
2019-05-13T17:27:42.344Z,104016.95
2019-05-13T17:30:12.243Z,104015.95
2019-05-13T17:32:41.665Z,104010.62
2019-05-13T17:35:11.816Z,104011.03
2019-05-13T17:37:42.900Z,104015.06
2019-05-13T17:40:12.699Z,104013.25
2019-05-13T17:42:43.883Z,104015.97
2019-05-13T17:45:13.670Z,104016.22
2019-05-13T17:47:43.103Z,104011.03
2019-05-13T17:50:12.882Z,104011.55
2019-05-13T17:52:42.487Z,104010.25
2019-05-13T17:55:12.169Z,104016.49
2019-05-13T17:57:41.676Z,104017.77
2019-05-13T18:00:12.276Z,104016.37
2019-05-13T18:02:42.134Z,104021.56
2019-05-13T18:05:12.274Z,104031.58
2019-05-13T18:07:42.128Z,104029.97
2019-05-13T18:10:14.483Z,104030.78
2019-05-13T18:12:43.199Z,104027.39
2019-05-13T18:15:12.906Z,104028.19
2019-05-13T18:17:42.811Z,104022.44
2019-05-13T18:20:12.351Z,104017.78
2019-05-13T18:22:42.175Z,104008.95
2019-05-13T18:25:12.264Z,104005.94
2019-05-13T18:27:42.427Z,104008.39
2019-05-13T18:30:12.432Z,104010.11
2019-05-13T18:32:41.961Z,104016.30
2019-05-13T18:35:12.250Z,104015.91
2019-05-13T18:37:42.039Z,104012.00
2019-05-13T18:40:11.962Z,104016.63
2019-05-13T18:42:42.202Z,104006.64
2019-05-13T18:45:11.978Z,104004.00
2019-05-13T18:47:41.520Z,104004.08
2019-05-13T18:50:11.718Z,104004.77
2019-05-13T18:52:42.070Z,103994.98
2019-05-13T18:55:12.402Z,103996.41
2019-05-13T18:57:44.853Z,104000.61
2019-05-13T19:00:14.431Z,104002.73
2019-05-13T19:02:43.854Z,103997.89
2019-05-13T19:05:13.377Z,103993.64
2019-05-13T19:07:42.892Z,103994.83
2019-05-13T19:10:12.583Z,103993.22
2019-05-13T19:12:42.379Z,103998.59
2019-05-13T19:15:11.841Z,104000.73
2019-05-13T19:17:41.676Z,104005.17
2019-05-13T19:20:11.834Z,104001.24
2019-05-13T19:22:41.487Z,104006.47
2019-05-13T19:25:11.911Z,104011.54
2019-05-13T19:27:41.608Z,104016.84
2019-05-13T19:30:12.242Z,104010.58
2019-05-13T19:32:42.298Z,104013.11
2019-05-13T19:35:13.220Z,104011.05
2019-05-13T19:37:42.773Z,104013.37
2019-05-13T19:40:13.018Z,104010.33
2019-05-13T19:42:42.677Z,104016.50
2019-05-13T19:45:12.330Z,104019.77
2019-05-13T19:47:42.037Z,104012.03
2019-05-13T19:50:11.766Z,104016.91
2019-05-13T19:52:41.597Z,104015.93
2019-05-13T19:55:12.031Z,104020.38
2019-05-13T19:57:42.480Z,104015.81
2019-05-13T20:00:14.244Z,104017.04
2019-05-13T20:02:43.787Z,104019.63
2019-05-13T20:05:13.353Z,104022.98
2019-05-13T20:07:43.158Z,104028.59
2019-05-13T20:10:12.871Z,104026.33
2019-05-13T20:12:42.458Z,104019.80
2019-05-13T20:15:12.145Z,104019.11
2019-05-13T20:17:43.214Z,104011.98
2019-05-13T20:20:13.022Z,104014.72
2019-05-13T20:22:42.524Z,104013.72
2019-05-13T20:25:13.090Z,104011.57
2019-05-13T20:27:43.039Z,104003.97
2019-05-13T20:30:12.501Z,104009.20
2019-05-13T20:32:42.189Z,104008.55
2019-05-13T20:35:11.851Z,104003.76
2019-05-13T20:37:42.825Z,104004.97
2019-05-13T20:40:12.478Z,103995.20
2019-05-13T20:42:43.499Z,103997.23
2019-05-13T20:45:13.140Z,103998.81
2019-05-13T20:47:42.651Z,104002.54
2019-05-13T20:50:12.638Z,104004.45
2019-05-13T20:52:42.218Z,104004.81
2019-05-13T20:55:12.130Z,103994.55
2019-05-13T20:57:41.837Z,103991.06
2019-05-13T21:00:12.799Z,103997.84
2019-05-13T21:02:42.498Z,103993.49
2019-05-13T21:05:13.001Z,103990.02
2019-05-13T21:07:42.436Z,103991.11
2019-05-13T21:10:12.305Z,103987.91
2019-05-13T21:12:43.645Z,103987.52
2019-05-13T21:15:13.334Z,103993.25
2019-05-13T21:17:43.031Z,103989.03
2019-05-13T21:20:19.535Z,103986.64
2019-05-13T21:22:43.820Z,103982.78
2019-05-13T21:25:13.745Z,103984.22
2019-05-13T21:27:43.360Z,103977.83
2019-05-13T21:30:13.482Z,103974.80
2019-05-13T21:32:43.847Z,103971.55
2019-05-13T21:35:13.451Z,103970.78
2019-05-13T21:37:42.889Z,103968.63
2019-05-13T21:40:13.938Z,103966.73
2019-05-13T21:42:43.666Z,103967.16
2019-05-13T21:45:13.203Z,103964.65
2019-05-13T21:47:42.644Z,103964.65
2019-05-13T21:50:12.686Z,103960.48
2019-05-13T21:52:42.766Z,103953.17
2019-05-13T21:55:12.404Z,103954.25
2019-05-13T21:57:41.867Z,103949.30
2019-05-13T22:00:16.278Z,103954.16
2019-05-13T22:02:45.860Z,103961.06
2019-05-13T22:05:15.494Z,103958.05
2019-05-13T22:07:44.991Z,103955.97
2019-05-13T22:10:15.095Z,103957.07
2019-05-13T22:12:44.596Z,103953.07
2019-05-13T22:15:14.438Z,103956.13
2019-05-13T22:17:44.011Z,103959.73
2019-05-13T22:20:14.016Z,103954.80
2019-05-13T22:22:43.464Z,103950.26
2019-05-13T22:25:13.136Z,103954.91
2019-05-13T22:27:42.771Z,103958.34
2019-05-13T22:30:12.504Z,103949.31
2019-05-13T22:32:42.113Z,103960.75
2019-05-13T22:35:12.119Z,103951.03
2019-05-13T22:37:43.075Z,103946.34
2019-05-13T22:40:14.225Z,103950.62
2019-05-13T22:42:43.671Z,103950.83
2019-05-13T22:45:13.128Z,103950.10
2019-05-13T22:47:42.563Z,103947.17
2019-05-13T22:50:12.629Z,103952.98
2019-05-13T22:52:42.152Z,103953.30
2019-05-13T22:55:11.888Z,103948.52
2019-05-13T22:57:41.989Z,103945.36
2019-05-13T23:00:12.134Z,103954.90
2019-05-13T23:02:42.326Z,103946.44
2019-05-13T23:05:11.933Z,103946.02
2019-05-13T23:07:41.513Z,103950.82
2019-05-13T23:10:11.931Z,103957.47
2019-05-13T23:12:42.084Z,103956.48
2019-05-13T23:15:12.264Z,103956.37
2019-05-13T23:17:41.760Z,103956.80
2019-05-13T23:20:11.693Z,103954.16
2019-05-13T23:22:41.618Z,103963.48
2019-05-13T23:25:12.146Z,103962.41
2019-05-13T23:27:41.884Z,103965.25
2019-05-13T23:30:11.805Z,103963.48
2019-05-13T23:32:41.228Z,103966.63
2019-05-13T23:35:11.297Z,103958.23
2019-05-13T23:37:41.800Z,103953.58
2019-05-13T23:40:11.971Z,103956.31
2019-05-13T23:42:41.477Z,103955.97
2019-05-13T23:45:11.587Z,103955.23
2019-05-13T23:47:41.767Z,103953.95
2019-05-13T23:50:12.622Z,103947.20
2019-05-13T23:52:42.199Z,103943.09
2019-05-13T23:55:11.652Z,103938.77
2019-05-13T23:57:42.123Z,103935.94
